sensor_id;sensor_type;location;lat;lon;timestamp;P1;durP1;ratioP1;P2;durP2;ratioP2
32934;SDS011;19292;51.532;7.650;2022-07-23T00:01:31;12.48;;;8.32;;
32934;SDS011;19292;51.532;7.650;2022-07-23T00:03:56;13.00;;;8.20;;
32934;SDS011;19292;51.532;7.650;2022-07-23T00:06:22;12.57;;;8.35;;
32934;SDS011;19292;51.532;7.650;2022-07-23T00:08:48;12.05;;;8.43;;
32934;SDS011;19292;51.532;7.650;2022-07-23T00:11:13;15.73;;;9.07;;
32934;SDS011;19292;51.532;7.650;2022-07-23T00:13:39;11.90;;;8.15;;
32934;SDS011;19292;51.532;7.650;2022-07-23T00:16:04;15.52;;;8.77;;
32934;SDS011;19292;51.532;7.650;2022-07-23T00:18:30;15.13;;;9.68;;
32934;SDS011;19292;51.532;7.650;2022-07-23T00:20:55;19.00;;;9.50;;
32934;SDS011;19292;51.532;7.650;2022-07-23T00:23:21;17.85;;;10.98;;
32934;SDS011;19292;51.532;7.650;2022-07-23T00:25:46;12.70;;;9.63;;
32934;SDS011;19292;51.532;7.650;2022-07-23T00:28:11;12.30;;;9.13;;
32934;SDS011;19292;51.532;7.650;2022-07-23T00:30:37;13.75;;;8.95;;
32934;SDS011;19292;51.532;7.650;2022-07-23T00:33:03;14.93;;;10.60;;
32934;SDS011;19292;51.532;7.650;2022-07-23T00:35:31;14.50;;;9.77;;
32934;SDS011;19292;51.532;7.650;2022-07-23T00:37:59;12.98;;;9.43;;
32934;SDS011;19292;51.532;7.650;2022-07-23T00:40:25;15.75;;;10.07;;
32934;SDS011;19292;51.532;7.650;2022-07-23T00:42:51;14.57;;;9.40;;
32934;SDS011;19292;51.532;7.650;2022-07-23T00:45:16;15.63;;;10.40;;
32934;SDS011;19292;51.532;7.650;2022-07-23T00:47:42;16.13;;;10.68;;
32934;SDS011;19292;51.532;7.650;2022-07-23T00:50:08;11.95;;;9.68;;
32934;SDS011;19292;51.532;7.650;2022-07-23T00:52:34;14.90;;;10.55;;
32934;SDS011;19292;51.532;7.650;2022-07-23T00:55:00;16.30;;;11.68;;
32934;SDS011;19292;51.532;7.650;2022-07-23T00:57:26;16.40;;;12.18;;
32934;SDS011;19292;51.532;7.650;2022-07-23T00:59:51;17.48;;;11.52;;
32934;SDS011;19292;51.532;7.650;2022-07-23T01:02:17;19.27;;;11.93;;
32934;SDS011;19292;51.532;7.650;2022-07-23T01:04:42;15.80;;;12.10;;
32934;SDS011;19292;51.532;7.650;2022-07-23T01:07:08;14.18;;;11.68;;
32934;SDS011;19292;51.532;7.650;2022-07-23T01:09:33;14.00;;;11.68;;
32934;SDS011;19292;51.532;7.650;2022-07-23T01:11:59;15.25;;;11.77;;
32934;SDS011;19292;51.532;7.650;2022-07-23T01:14:24;13.82;;;10.93;;
32934;SDS011;19292;51.532;7.650;2022-07-23T01:16:50;11.57;;;10.40;;
32934;SDS011;19292;51.532;7.650;2022-07-23T01:19:16;13.80;;;11.25;;
32934;SDS011;19292;51.532;7.650;2022-07-23T01:21:43;14.65;;;11.45;;
32934;SDS011;19292;51.532;7.650;2022-07-23T01:24:10;18.95;;;13.93;;
32934;SDS011;19292;51.532;7.650;2022-07-23T01:26:36;15.60;;;12.10;;
32934;SDS011;19292;51.532;7.650;2022-07-23T01:29:02;14.85;;;13.05;;
32934;SDS011;19292;51.532;7.650;2022-07-23T01:31:28;21.95;;;12.38;;
32934;SDS011;19292;51.532;7.650;2022-07-23T01:33:54;14.25;;;11.88;;
32934;SDS011;19292;51.532;7.650;2022-07-23T01:36:19;14.35;;;12.18;;
32934;SDS011;19292;51.532;7.650;2022-07-23T01:38:44;13.45;;;12.05;;
32934;SDS011;19292;51.532;7.650;2022-07-23T01:41:13;12.60;;;11.30;;
32934;SDS011;19292;51.532;7.650;2022-07-23T01:43:38;15.43;;;12.18;;
32934;SDS011;19292;51.532;7.650;2022-07-23T01:46:04;17.10;;;12.55;;
32934;SDS011;19292;51.532;7.650;2022-07-23T01:48:29;14.32;;;11.65;;
32934;SDS011;19292;51.532;7.650;2022-07-23T01:50:55;14.15;;;12.10;;
32934;SDS011;19292;51.532;7.650;2022-07-23T01:53:20;13.80;;;11.63;;
32934;SDS011;19292;51.532;7.650;2022-07-23T01:55:45;18.58;;;13.25;;
32934;SDS011;19292;51.532;7.650;2022-07-23T01:58:11;12.18;;;10.30;;
32934;SDS011;19292;51.532;7.650;2022-07-23T02:00:36;13.88;;;12.30;;
32934;SDS011;19292;51.532;7.650;2022-07-23T02:03:01;15.52;;;12.52;;
32934;SDS011;19292;51.532;7.650;2022-07-23T02:05:27;13.30;;;11.82;;
32934;SDS011;19292;51.532;7.650;2022-07-23T02:07:57;15.18;;;10.50;;
32934;SDS011;19292;51.532;7.650;2022-07-23T02:10:23;15.32;;;11.82;;
32934;SDS011;19292;51.532;7.650;2022-07-23T02:12:48;13.73;;;11.80;;
32934;SDS011;19292;51.532;7.650;2022-07-23T02:15:14;16.13;;;12.48;;
32934;SDS011;19292;51.532;7.650;2022-07-23T02:17:39;13.52;;;10.98;;
32934;SDS011;19292;51.532;7.650;2022-07-23T02:20:05;13.15;;;11.73;;
32934;SDS011;19292;51.532;7.650;2022-07-23T02:22:34;11.63;;;10.27;;
32934;SDS011;19292;51.532;7.650;2022-07-23T02:25:01;16.27;;;11.50;;
32934;SDS011;19292;51.532;7.650;2022-07-23T02:27:27;12.75;;;11.45;;
32934;SDS011;19292;51.532;7.650;2022-07-23T02:29:53;13.85;;;11.57;;
32934;SDS011;19292;51.532;7.650;2022-07-23T02:32:18;14.02;;;12.40;;
32934;SDS011;19292;51.532;7.650;2022-07-23T02:34:46;21.98;;;12.45;;
32934;SDS011;19292;51.532;7.650;2022-07-23T02:37:12;13.02;;;11.20;;
32934;SDS011;19292;51.532;7.650;2022-07-23T02:39:37;14.07;;;11.98;;
32934;SDS011;19292;51.532;7.650;2022-07-23T02:42:03;13.18;;;11.68;;
32934;SDS011;19292;51.532;7.650;2022-07-23T02:44:28;14.98;;;13.15;;
32934;SDS011;19292;51.532;7.650;2022-07-23T02:46:56;17.58;;;13.52;;
32934;SDS011;19292;51.532;7.650;2022-07-23T02:49:21;16.67;;;12.57;;
32934;SDS011;19292;51.532;7.650;2022-07-23T02:51:47;14.43;;;11.93;;
32934;SDS011;19292;51.532;7.650;2022-07-23T02:54:12;13.43;;;11.85;;
32934;SDS011;19292;51.532;7.650;2022-07-23T02:56:37;18.83;;;12.73;;
32934;SDS011;19292;51.532;7.650;2022-07-23T02:59:03;17.00;;;12.85;;
32934;SDS011;19292;51.532;7.650;2022-07-23T03:01:28;18.08;;;13.57;;
32934;SDS011;19292;51.532;7.650;2022-07-23T03:03:53;13.82;;;12.43;;
32934;SDS011;19292;51.532;7.650;2022-07-23T03:06:19;16.60;;;12.40;;
32934;SDS011;19292;51.532;7.650;2022-07-23T03:08:44;14.80;;;11.68;;
32934;SDS011;19292;51.532;7.650;2022-07-23T03:11:10;13.55;;;11.35;;
32934;SDS011;19292;51.532;7.650;2022-07-23T03:13:38;14.05;;;12.40;;
32934;SDS011;19292;51.532;7.650;2022-07-23T03:16:04;13.52;;;11.27;;
32934;SDS011;19292;51.532;7.650;2022-07-23T03:18:30;12.60;;;11.20;;
32934;SDS011;19292;51.532;7.650;2022-07-23T03:20:56;15.43;;;12.55;;
32934;SDS011;19292;51.532;7.650;2022-07-23T03:23:21;18.98;;;13.07;;
32934;SDS011;19292;51.532;7.650;2022-07-23T03:25:47;14.18;;;11.10;;
32934;SDS011;19292;51.532;7.650;2022-07-23T03:28:13;16.23;;;11.43;;
32934;SDS011;19292;51.532;7.650;2022-07-23T03:30:42;13.68;;;11.20;;
32934;SDS011;19292;51.532;7.650;2022-07-23T03:33:07;14.32;;;12.27;;
32934;SDS011;19292;51.532;7.650;2022-07-23T03:35:33;18.70;;;12.05;;
32934;SDS011;19292;51.532;7.650;2022-07-23T03:37:58;16.05;;;12.85;;
32934;SDS011;19292;51.532;7.650;2022-07-23T03:40:24;16.02;;;13.15;;
32934;SDS011;19292;51.532;7.650;2022-07-23T03:42:49;14.38;;;12.15;;
32934;SDS011;19292;51.532;7.650;2022-07-23T03:45:14;13.23;;;11.82;;
32934;SDS011;19292;51.532;7.650;2022-07-23T03:47:40;14.02;;;10.93;;
32934;SDS011;19292;51.532;7.650;2022-07-23T03:50:05;12.93;;;11.60;;
32934;SDS011;19292;51.532;7.650;2022-07-23T03:52:31;15.25;;;11.10;;
32934;SDS011;19292;51.532;7.650;2022-07-23T03:54:56;15.88;;;11.30;;
32934;SDS011;19292;51.532;7.650;2022-07-23T03:57:22;11.18;;;10.00;;
32934;SDS011;19292;51.532;7.650;2022-07-23T03:59:47;13.05;;;11.25;;
32934;SDS011;19292;51.532;7.650;2022-07-23T04:02:12;12.07;;;10.77;;
32934;SDS011;19292;51.532;7.650;2022-07-23T04:04:38;13.68;;;10.35;;
32934;SDS011;19292;51.532;7.650;2022-07-23T04:07:03;15.63;;;10.80;;
32934;SDS011;19292;51.532;7.650;2022-07-23T04:09:29;13.93;;;12.50;;
32934;SDS011;19292;51.532;7.650;2022-07-23T04:11:54;13.25;;;11.65;;
32934;SDS011;19292;51.532;7.650;2022-07-23T04:14:19;12.80;;;10.77;;
32934;SDS011;19292;51.532;7.650;2022-07-23T04:16:45;15.07;;;11.75;;
32934;SDS011;19292;51.532;7.650;2022-07-23T04:19:10;16.08;;;13.57;;
32934;SDS011;19292;51.532;7.650;2022-07-23T04:21:35;23.08;;;13.60;;
32934;SDS011;19292;51.532;7.650;2022-07-23T04:24:01;14.25;;;12.00;;
32934;SDS011;19292;51.532;7.650;2022-07-23T04:26:26;14.60;;;12.10;;
32934;SDS011;19292;51.532;7.650;2022-07-23T04:28:52;13.88;;;12.30;;
32934;SDS011;19292;51.532;7.650;2022-07-23T04:31:17;16.20;;;14.50;;
32934;SDS011;19292;51.532;7.650;2022-07-23T04:33:42;17.60;;;14.85;;
32934;SDS011;19292;51.532;7.650;2022-07-23T04:36:08;17.27;;;14.90;;
32934;SDS011;19292;51.532;7.650;2022-07-23T04:38:33;16.80;;;13.75;;
32934;SDS011;19292;51.532;7.650;2022-07-23T04:40:59;21.95;;;19.63;;
32934;SDS011;19292;51.532;7.650;2022-07-23T04:43:24;25.55;;;22.60;;
32934;SDS011;19292;51.532;7.650;2022-07-23T04:45:50;27.42;;;24.73;;
32934;SDS011;19292;51.532;7.650;2022-07-23T04:48:15;24.58;;;19.63;;
32934;SDS011;19292;51.532;7.650;2022-07-23T04:50:40;23.25;;;19.50;;
32934;SDS011;19292;51.532;7.650;2022-07-23T04:53:07;21.67;;;19.48;;
32934;SDS011;19292;51.532;7.650;2022-07-23T04:55:33;20.35;;;17.38;;
32934;SDS011;19292;51.532;7.650;2022-07-23T04:57:58;17.27;;;15.05;;
32934;SDS011;19292;51.532;7.650;2022-07-23T05:00:23;16.70;;;13.80;;
32934;SDS011;19292;51.532;7.650;2022-07-23T05:02:49;17.33;;;15.43;;
32934;SDS011;19292;51.532;7.650;2022-07-23T05:05:14;19.58;;;15.90;;
32934;SDS011;19292;51.532;7.650;2022-07-23T05:07:39;16.50;;;14.75;;
32934;SDS011;19292;51.532;7.650;2022-07-23T05:10:05;17.45;;;14.95;;
32934;SDS011;19292;51.532;7.650;2022-07-23T05:12:30;17.00;;;15.30;;
32934;SDS011;19292;51.532;7.650;2022-07-23T05:14:57;18.60;;;16.60;;
32934;SDS011;19292;51.532;7.650;2022-07-23T05:17:23;20.08;;;17.55;;
32934;SDS011;19292;51.532;7.650;2022-07-23T05:19:48;21.65;;;19.45;;
32934;SDS011;19292;51.532;7.650;2022-07-23T05:22:13;24.17;;;21.67;;
32934;SDS011;19292;51.532;7.650;2022-07-23T05:24:39;26.50;;;23.70;;
32934;SDS011;19292;51.532;7.650;2022-07-23T05:27:07;29.98;;;24.98;;
32934;SDS011;19292;51.532;7.650;2022-07-23T05:29:33;30.10;;;26.52;;
32934;SDS011;19292;51.532;7.650;2022-07-23T05:31:58;23.67;;;21.25;;
32934;SDS011;19292;51.532;7.650;2022-07-23T05:34:23;26.52;;;23.70;;
32934;SDS011;19292;51.532;7.650;2022-07-23T05:36:49;27.42;;;22.00;;
32934;SDS011;19292;51.532;7.650;2022-07-23T05:39:14;23.95;;;20.75;;
32934;SDS011;19292;51.532;7.650;2022-07-23T05:41:39;24.25;;;21.70;;
32934;SDS011;19292;51.532;7.650;2022-07-23T05:44:05;26.73;;;21.63;;
32934;SDS011;19292;51.532;7.650;2022-07-23T05:46:30;23.48;;;20.13;;
32934;SDS011;19292;51.532;7.650;2022-07-23T05:48:55;24.20;;;20.75;;
32934;SDS011;19292;51.532;7.650;2022-07-23T05:51:21;25.60;;;20.80;;
32934;SDS011;19292;51.532;7.650;2022-07-23T05:53:50;24.85;;;19.85;;
32934;SDS011;19292;51.532;7.650;2022-07-23T05:56:16;23.23;;;19.50;;
32934;SDS011;19292;51.532;7.650;2022-07-23T05:58:45;25.35;;;20.45;;
32934;SDS011;19292;51.532;7.650;2022-07-23T06:01:11;24.67;;;20.77;;
32934;SDS011;19292;51.532;7.650;2022-07-23T06:03:37;27.85;;;21.17;;
32934;SDS011;19292;51.532;7.650;2022-07-23T06:06:02;29.45;;;20.85;;
32934;SDS011;19292;51.532;7.650;2022-07-23T06:08:28;26.67;;;21.95;;
32934;SDS011;19292;51.532;7.650;2022-07-23T06:10:54;27.50;;;21.65;;
32934;SDS011;19292;51.532;7.650;2022-07-23T06:13:19;26.67;;;22.02;;
32934;SDS011;19292;51.532;7.650;2022-07-23T06:15:45;27.88;;;22.25;;
32934;SDS011;19292;51.532;7.650;2022-07-23T06:18:10;24.60;;;22.08;;
32934;SDS011;19292;51.532;7.650;2022-07-23T06:20:36;28.65;;;21.42;;
32934;SDS011;19292;51.532;7.650;2022-07-23T06:23:01;24.90;;;21.75;;
32934;SDS011;19292;51.532;7.650;2022-07-23T06:25:26;28.00;;;22.92;;
32934;SDS011;19292;51.532;7.650;2022-07-23T06:27:52;28.25;;;21.83;;
32934;SDS011;19292;51.532;7.650;2022-07-23T06:30:17;26.25;;;23.30;;
32934;SDS011;19292;51.532;7.650;2022-07-23T06:32:43;28.95;;;22.38;;
32934;SDS011;19292;51.532;7.650;2022-07-23T06:35:09;29.13;;;23.63;;
32934;SDS011;19292;51.532;7.650;2022-07-23T06:37:34;25.63;;;21.27;;
32934;SDS011;19292;51.532;7.650;2022-07-23T06:40:00;27.52;;;23.70;;
32934;SDS011;19292;51.532;7.650;2022-07-23T06:42:28;27.00;;;24.15;;
32934;SDS011;19292;51.532;7.650;2022-07-23T06:44:53;26.80;;;23.92;;
32934;SDS011;19292;51.532;7.650;2022-07-23T06:47:18;29.63;;;25.63;;
32934;SDS011;19292;51.532;7.650;2022-07-23T06:49:44;29.77;;;25.75;;
32934;SDS011;19292;51.532;7.650;2022-07-23T06:52:09;28.15;;;23.15;;
32934;SDS011;19292;51.532;7.650;2022-07-23T06:54:34;26.45;;;22.65;;
32934;SDS011;19292;51.532;7.650;2022-07-23T06:57:00;29.35;;;24.48;;
32934;SDS011;19292;51.532;7.650;2022-07-23T06:59:25;28.98;;;22.88;;
32934;SDS011;19292;51.532;7.650;2022-07-23T07:01:50;25.90;;;23.05;;
32934;SDS011;19292;51.532;7.650;2022-07-23T07:04:16;32.03;;;25.10;;
32934;SDS011;19292;51.532;7.650;2022-07-23T07:06:41;28.08;;;24.25;;
32934;SDS011;19292;51.532;7.650;2022-07-23T07:09:07;30.33;;;25.10;;
32934;SDS011;19292;51.532;7.650;2022-07-23T07:11:32;30.90;;;25.73;;
32934;SDS011;19292;51.532;7.650;2022-07-23T07:13:57;30.30;;;26.38;;
32934;SDS011;19292;51.532;7.650;2022-07-23T07:16:23;31.13;;;25.52;;
32934;SDS011;19292;51.532;7.650;2022-07-23T07:18:48;30.30;;;25.67;;
32934;SDS011;19292;51.532;7.650;2022-07-23T07:21:13;29.25;;;25.55;;
32934;SDS011;19292;51.532;7.650;2022-07-23T07:23:39;29.52;;;24.92;;
32934;SDS011;19292;51.532;7.650;2022-07-23T07:26:04;29.27;;;24.55;;
32934;SDS011;19292;51.532;7.650;2022-07-23T07:28:29;28.42;;;23.15;;
32934;SDS011;19292;51.532;7.650;2022-07-23T07:30:55;30.27;;;25.17;;
32934;SDS011;19292;51.532;7.650;2022-07-23T07:33:20;28.23;;;25.20;;
32934;SDS011;19292;51.532;7.650;2022-07-23T07:35:46;29.15;;;25.40;;
32934;SDS011;19292;51.532;7.650;2022-07-23T07:38:11;35.45;;;26.45;;
32934;SDS011;19292;51.532;7.650;2022-07-23T07:40:37;32.03;;;24.35;;
32934;SDS011;19292;51.532;7.650;2022-07-23T07:43:02;35.67;;;25.95;;
32934;SDS011;19292;51.532;7.650;2022-07-23T07:45:28;32.47;;;26.70;;
32934;SDS011;19292;51.532;7.650;2022-07-23T07:47:54;35.35;;;30.52;;
32934;SDS011;19292;51.532;7.650;2022-07-23T07:50:19;38.50;;;32.17;;
32934;SDS011;19292;51.532;7.650;2022-07-23T07:52:45;39.45;;;32.13;;
32934;SDS011;19292;51.532;7.650;2022-07-23T07:55:11;39.30;;;34.03;;
32934;SDS011;19292;51.532;7.650;2022-07-23T07:57:37;39.72;;;32.03;;
32934;SDS011;19292;51.532;7.650;2022-07-23T08:00:03;45.22;;;36.28;;
32934;SDS011;19292;51.532;7.650;2022-07-23T08:02:39;44.08;;;37.97;;
32934;SDS011;19292;51.532;7.650;2022-07-23T08:05:14;44.47;;;38.78;;
32934;SDS011;19292;51.532;7.650;2022-07-23T08:07:43;43.85;;;38.28;;
32934;SDS011;19292;51.532;7.650;2022-07-23T08:10:08;43.92;;;37.95;;
32934;SDS011;19292;51.532;7.650;2022-07-23T08:12:38;43.22;;;38.75;;
32934;SDS011;19292;51.532;7.650;2022-07-23T08:15:06;40.70;;;35.25;;
32934;SDS011;19292;51.532;7.650;2022-07-23T08:17:32;44.38;;;37.47;;
32934;SDS011;19292;51.532;7.650;2022-07-23T08:19:57;41.55;;;37.15;;
32934;SDS011;19292;51.532;7.650;2022-07-23T08:22:23;43.85;;;36.30;;
32934;SDS011;19292;51.532;7.650;2022-07-23T08:24:48;41.72;;;35.80;;
32934;SDS011;19292;51.532;7.650;2022-07-23T08:27:13;41.42;;;37.05;;
32934;SDS011;19292;51.532;7.650;2022-07-23T08:29:39;46.63;;;41.58;;
32934;SDS011;19292;51.532;7.650;2022-07-23T08:32:04;46.67;;;40.63;;
32934;SDS011;19292;51.532;7.650;2022-07-23T08:34:29;44.70;;;39.95;;
32934;SDS011;19292;51.532;7.650;2022-07-23T08:36:55;42.03;;;37.65;;
32934;SDS011;19292;51.532;7.650;2022-07-23T08:39:20;42.42;;;37.83;;
32934;SDS011;19292;51.532;7.650;2022-07-23T08:41:45;39.05;;;34.08;;
32934;SDS011;19292;51.532;7.650;2022-07-23T08:44:13;29.48;;;26.40;;
32934;SDS011;19292;51.532;7.650;2022-07-23T08:46:39;29.45;;;26.38;;
32934;SDS011;19292;51.532;7.650;2022-07-23T08:49:06;30.60;;;27.23;;
32934;SDS011;19292;51.532;7.650;2022-07-23T08:51:33;26.65;;;23.85;;
32934;SDS011;19292;51.532;7.650;2022-07-23T08:53:59;33.85;;;30.23;;
32934;SDS011;19292;51.532;7.650;2022-07-23T08:56:25;36.15;;;32.25;;
32934;SDS011;19292;51.532;7.650;2022-07-23T08:58:53;42.17;;;37.85;;
32934;SDS011;19292;51.532;7.650;2022-07-23T09:01:18;31.95;;;28.63;;
32934;SDS011;19292;51.532;7.650;2022-07-23T09:03:44;32.35;;;28.85;;
32934;SDS011;19292;51.532;7.650;2022-07-23T09:06:10;28.25;;;25.30;;
32934;SDS011;19292;51.532;7.650;2022-07-23T09:08:39;30.55;;;25.83;;
32934;SDS011;19292;51.532;7.650;2022-07-23T09:11:08;20.40;;;17.85;;
32934;SDS011;19292;51.532;7.650;2022-07-23T09:13:48;23.73;;;18.27;;
32934;SDS011;19292;51.532;7.650;2022-07-23T09:16:15;21.45;;;19.25;;
32934;SDS011;19292;51.532;7.650;2022-07-23T09:18:43;18.50;;;16.65;;
32934;SDS011;19292;51.532;7.650;2022-07-23T09:23:44;17.92;;;16.17;;
32934;SDS011;19292;51.532;7.650;2022-07-23T09:26:18;17.85;;;15.25;;
32934;SDS011;19292;51.532;7.650;2022-07-23T09:28:54;16.17;;;14.50;;
32934;SDS011;19292;51.532;7.650;2022-07-23T09:31:20;15.38;;;13.70;;
32934;SDS011;19292;51.532;7.650;2022-07-23T09:33:46;14.57;;;12.90;;
32934;SDS011;19292;51.532;7.650;2022-07-23T09:36:14;14.30;;;12.80;;
32934;SDS011;19292;51.532;7.650;2022-07-23T09:38:49;14.98;;;13.18;;
32934;SDS011;19292;51.532;7.650;2022-07-23T09:41:15;15.15;;;12.10;;
32934;SDS011;19292;51.532;7.650;2022-07-23T09:43:41;11.48;;;10.38;;
32934;SDS011;19292;51.532;7.650;2022-07-23T09:46:19;11.80;;;10.60;;
32934;SDS011;19292;51.532;7.650;2022-07-23T09:48:55;16.95;;;13.35;;
32934;SDS011;19292;51.532;7.650;2022-07-23T09:51:24;17.25;;;15.55;;
32934;SDS011;19292;51.532;7.650;2022-07-23T09:54:02;15.43;;;13.50;;
32934;SDS011;19292;51.532;7.650;2022-07-23T09:56:27;12.18;;;11.00;;
32934;SDS011;19292;51.532;7.650;2022-07-23T09:58:53;10.40;;;9.40;;
32934;SDS011;19292;51.532;7.650;2022-07-23T10:01:31;11.02;;;9.73;;
32934;SDS011;19292;51.532;7.650;2022-07-23T10:03:57;12.95;;;11.50;;
32934;SDS011;19292;51.532;7.650;2022-07-23T10:06:23;15.68;;;13.35;;
32934;SDS011;19292;51.532;7.650;2022-07-23T10:08:49;14.48;;;13.07;;
32934;SDS011;19292;51.532;7.650;2022-07-23T10:11:16;11.15;;;8.25;;
32934;SDS011;19292;51.532;7.650;2022-07-23T10:13:44;8.95;;;6.75;;
32934;SDS011;19292;51.532;7.650;2022-07-23T10:16:24;11.63;;;9.05;;
32934;SDS011;19292;51.532;7.650;2022-07-23T10:18:50;9.20;;;6.82;;
32934;SDS011;19292;51.532;7.650;2022-07-23T10:21:18;8.35;;;7.00;;
32934;SDS011;19292;51.532;7.650;2022-07-23T10:35:48;10.05;;;8.48;;
32934;SDS011;19292;51.532;7.650;2022-07-23T10:37:59;9.40;;;6.40;;
32934;SDS011;19292;51.532;7.650;2022-07-23T10:40:28;6.72;;;6.03;;
32934;SDS011;19292;51.532;7.650;2022-07-23T10:42:58;8.15;;;6.53;;
32934;SDS011;19292;51.532;7.650;2022-07-23T10:45:28;9.13;;;5.90;;
32934;SDS011;19292;51.532;7.650;2022-07-23T10:47:54;9.30;;;6.93;;
32934;SDS011;19292;51.532;7.650;2022-07-23T10:50:26;8.48;;;7.20;;
32934;SDS011;19292;51.532;7.650;2022-07-23T10:55:39;11.35;;;6.75;;
32934;SDS011;19292;51.532;7.650;2022-07-23T10:58:17;9.32;;;6.05;;
32934;SDS011;19292;51.532;7.650;2022-07-23T11:00:46;10.13;;;5.88;;
32934;SDS011;19292;51.532;7.650;2022-07-23T11:03:29;7.18;;;5.15;;
32934;SDS011;19292;51.532;7.650;2022-07-23T11:05:57;8.65;;;4.50;;
32934;SDS011;19292;51.532;7.650;2022-07-23T11:08:25;8.65;;;4.32;;
32934;SDS011;19292;51.532;7.650;2022-07-23T11:11:11;7.20;;;4.30;;
32934;SDS011;19292;51.532;7.650;2022-07-23T11:13:40;8.27;;;5.00;;
32934;SDS011;19292;51.532;7.650;2022-07-23T11:16:07;6.05;;;3.97;;
32934;SDS011;19292;51.532;7.650;2022-07-23T11:23:59;5.10;;;3.90;;
32934;SDS011;19292;51.532;7.650;2022-07-23T11:31:57;8.02;;;4.82;;
32934;SDS011;19292;51.532;7.650;2022-07-23T11:36:59;5.20;;;3.40;;
32934;SDS011;19292;51.532;7.650;2022-07-23T11:39:26;6.28;;;3.88;;
32934;SDS011;19292;51.532;7.650;2022-07-23T11:41:53;6.78;;;4.40;;
32934;SDS011;19292;51.532;7.650;2022-07-23T11:44:26;6.65;;;3.53;;
32934;SDS011;19292;51.532;7.650;2022-07-23T11:46:59;7.80;;;3.63;;
32934;SDS011;19292;51.532;7.650;2022-07-23T11:49:32;6.85;;;2.90;;
32934;SDS011;19292;51.532;7.650;2022-07-23T11:54:36;4.90;;;3.22;;
32934;SDS011;19292;51.532;7.650;2022-07-23T11:57:05;10.60;;;4.17;;
32934;SDS011;19292;51.532;7.650;2022-07-23T11:59:31;4.40;;;2.92;;
32934;SDS011;19292;51.532;7.650;2022-07-23T12:04:25;4.05;;;3.03;;
32934;SDS011;19292;51.532;7.650;2022-07-23T12:07:01;3.60;;;2.83;;
32934;SDS011;19292;51.532;7.650;2022-07-23T12:09:27;4.57;;;2.50;;
32934;SDS011;19292;51.532;7.650;2022-07-23T12:12:01;5.45;;;3.00;;
32934;SDS011;19292;51.532;7.650;2022-07-23T12:14:26;6.00;;;3.15;;
32934;SDS011;19292;51.532;7.650;2022-07-23T12:17:10;5.47;;;3.17;;
32934;SDS011;19292;51.532;7.650;2022-07-23T12:19:36;6.47;;;3.33;;
32934;SDS011;19292;51.532;7.650;2022-07-23T12:22:01;6.05;;;3.60;;
32934;SDS011;19292;51.532;7.650;2022-07-23T12:24:26;6.00;;;3.40;;
32934;SDS011;19292;51.532;7.650;2022-07-23T12:27:08;4.28;;;3.00;;
32934;SDS011;19292;51.532;7.650;2022-07-23T12:29:36;3.95;;;2.88;;
32934;SDS011;19292;51.532;7.650;2022-07-23T12:32:02;4.55;;;2.65;;
32934;SDS011;19292;51.532;7.650;2022-07-23T12:35:06;5.57;;;2.95;;
32934;SDS011;19292;51.532;7.650;2022-07-23T12:37:34;4.63;;;2.53;;
32934;SDS011;19292;51.532;7.650;2022-07-23T12:42:50;6.15;;;2.47;;
32934;SDS011;19292;51.532;7.650;2022-07-23T12:45:18;3.83;;;2.53;;
32934;SDS011;19292;51.532;7.650;2022-07-23T12:50:35;3.97;;;2.42;;
32934;SDS011;19292;51.532;7.650;2022-07-23T12:53:04;5.50;;;3.30;;
32934;SDS011;19292;51.532;7.650;2022-07-23T12:55:37;2.83;;;2.50;;
32934;SDS011;19292;51.532;7.650;2022-07-23T12:58:07;5.38;;;3.20;;
32934;SDS011;19292;51.532;7.650;2022-07-23T13:06:26;5.47;;;2.40;;
32934;SDS011;19292;51.532;7.650;2022-07-23T13:09:13;5.05;;;2.55;;
32934;SDS011;19292;51.532;7.650;2022-07-23T13:11:39;3.88;;;2.70;;
32934;SDS011;19292;51.532;7.650;2022-07-23T13:14:05;4.75;;;2.80;;
32934;SDS011;19292;51.532;7.650;2022-07-23T13:16:31;5.38;;;2.72;;
32934;SDS011;19292;51.532;7.650;2022-07-23T13:18:58;6.35;;;2.47;;
32934;SDS011;19292;51.532;7.650;2022-07-23T13:21:24;4.35;;;2.60;;
32934;SDS011;19292;51.532;7.650;2022-07-23T13:23:53;3.95;;;2.38;;
32934;SDS011;19292;51.532;7.650;2022-07-23T13:26:19;5.53;;;2.95;;
32934;SDS011;19292;51.532;7.650;2022-07-23T13:28:44;3.78;;;2.70;;
32934;SDS011;19292;51.532;7.650;2022-07-23T13:31:10;4.68;;;2.80;;
32934;SDS011;19292;51.532;7.650;2022-07-23T13:33:35;3.58;;;2.70;;
32934;SDS011;19292;51.532;7.650;2022-07-23T13:36:01;2.65;;;2.13;;
32934;SDS011;19292;51.532;7.650;2022-07-23T13:38:26;6.03;;;2.42;;
32934;SDS011;19292;51.532;7.650;2022-07-23T13:40:52;4.72;;;2.90;;
32934;SDS011;19292;51.532;7.650;2022-07-23T13:43:22;3.28;;;2.40;;
32934;SDS011;19292;51.532;7.650;2022-07-23T13:45:49;3.72;;;2.20;;
32934;SDS011;19292;51.532;7.650;2022-07-23T13:48:15;4.60;;;2.50;;
32934;SDS011;19292;51.532;7.650;2022-07-23T13:50:41;3.97;;;3.17;;
32934;SDS011;19292;51.532;7.650;2022-07-23T13:53:08;4.38;;;2.80;;
32934;SDS011;19292;51.532;7.650;2022-07-23T13:55:36;3.92;;;2.72;;
32934;SDS011;19292;51.532;7.650;2022-07-23T13:58:02;4.97;;;4.25;;
32934;SDS011;19292;51.532;7.650;2022-07-23T14:00:29;9.90;;;9.20;;
32934;SDS011;19292;51.532;7.650;2022-07-23T14:02:58;9.82;;;9.23;;
32934;SDS011;19292;51.532;7.650;2022-07-23T14:05:27;12.38;;;11.18;;
32934;SDS011;19292;51.532;7.650;2022-07-23T14:07:53;10.95;;;10.27;;
32934;SDS011;19292;51.532;7.650;2022-07-23T14:10:21;8.55;;;7.95;;
32934;SDS011;19292;51.532;7.650;2022-07-23T14:12:47;10.07;;;9.50;;
32934;SDS011;19292;51.532;7.650;2022-07-23T14:15:14;14.10;;;13.20;;
32934;SDS011;19292;51.532;7.650;2022-07-23T14:17:40;10.60;;;9.82;;
32934;SDS011;19292;51.532;7.650;2022-07-23T14:20:08;8.95;;;8.40;;
32934;SDS011;19292;51.532;7.650;2022-07-23T14:22:35;10.40;;;9.80;;
32934;SDS011;19292;51.532;7.650;2022-07-23T14:25:00;8.43;;;7.72;;
32934;SDS011;19292;51.532;7.650;2022-07-23T14:27:26;9.10;;;8.45;;
32934;SDS011;19292;51.532;7.650;2022-07-23T14:29:53;10.70;;;9.93;;
32934;SDS011;19292;51.532;7.650;2022-07-23T14:32:19;8.45;;;7.70;;
32934;SDS011;19292;51.532;7.650;2022-07-23T14:34:44;10.75;;;10.07;;
32934;SDS011;19292;51.532;7.650;2022-07-23T14:37:10;9.48;;;8.75;;
32934;SDS011;19292;51.532;7.650;2022-07-23T14:39:39;10.75;;;9.88;;
32934;SDS011;19292;51.532;7.650;2022-07-23T14:42:05;8.82;;;8.20;;
32934;SDS011;19292;51.532;7.650;2022-07-23T14:44:31;9.13;;;8.52;;
32934;SDS011;19292;51.532;7.650;2022-07-23T14:46:57;9.75;;;8.98;;
32934;SDS011;19292;51.532;7.650;2022-07-23T14:49:23;8.35;;;7.70;;
32934;SDS011;19292;51.532;7.650;2022-07-23T14:51:48;8.27;;;7.70;;
32934;SDS011;19292;51.532;7.650;2022-07-23T14:54:14;8.95;;;8.35;;
32934;SDS011;19292;51.532;7.650;2022-07-23T14:56:40;10.55;;;8.52;;
32934;SDS011;19292;51.532;7.650;2022-07-23T14:59:06;7.93;;;7.43;;
32934;SDS011;19292;51.532;7.650;2022-07-23T15:01:32;8.80;;;8.07;;
32934;SDS011;19292;51.532;7.650;2022-07-23T15:03:58;6.63;;;6.13;;
32934;SDS011;19292;51.532;7.650;2022-07-23T15:06:23;11.95;;;11.20;;
32934;SDS011;19292;51.532;7.650;2022-07-23T15:08:49;11.70;;;11.00;;
32934;SDS011;19292;51.532;7.650;2022-07-23T15:11:14;9.23;;;8.43;;
32934;SDS011;19292;51.532;7.650;2022-07-23T15:13:40;15.07;;;14.10;;